createdAt,value
2022-09-15T00:00:55.139Z,92933.21
2022-09-15T00:02:11.241Z,92928.98
2022-09-15T00:03:14.597Z,92928.45
2022-09-15T00:04:20.317Z,92931.13
2022-09-15T00:05:23.422Z,92930.11
2022-09-15T00:06:28.588Z,92933.66
2022-09-15T00:07:33.277Z,92933.66
2022-09-15T00:08:36.876Z,92935.06
2022-09-15T00:09:41.162Z,92934.98
2022-09-15T00:10:58.710Z,92931.81
2022-09-15T00:12:02.324Z,92915.89
2022-09-15T00:13:05.680Z,92927.98
2022-09-15T00:14:09.176Z,92930.48
2022-09-15T00:15:23.192Z,92937.39
2022-09-15T00:16:28.469Z,92939.36
2022-09-15T00:17:31.755Z,92935.75
2022-09-15T00:18:35.992Z,92935.09
2022-09-15T00:19:39.228Z,92935.32
2022-09-15T00:20:43.842Z,92935.58
2022-09-15T00:21:47.203Z,92937.55
2022-09-15T00:22:50.471Z,92936.48
2022-09-15T00:23:54.145Z,92934.13
2022-09-15T00:24:59.586Z,92931.42
2022-09-15T00:26:06.523Z,92931.70
2022-09-15T00:27:09.759Z,92928.79
2022-09-15T00:28:15.034Z,92927.80
2022-09-15T00:29:18.287Z,92932.34
2022-09-15T00:30:21.936Z,92929.89
2022-09-15T00:31:27.474Z,92932.11
2022-09-15T00:32:31.227Z,92931.23
2022-09-15T00:33:34.733Z,92930.14
2022-09-15T00:34:38.174Z,92932.31
2022-09-15T00:35:43.711Z,92928.10
2022-09-15T00:36:47.222Z,92932.16
2022-09-15T00:37:50.927Z,92930.33
2022-09-15T00:38:54.605Z,92940.68
2022-09-15T00:39:57.883Z,92938.41
2022-09-15T00:41:01.722Z,92938.42
2022-09-15T00:42:05.266Z,92934.02
2022-09-15T00:43:14.153Z,92935.89
2022-09-15T00:44:20.857Z,92934.58
2022-09-15T00:45:24.080Z,92933.88
2022-09-15T00:46:45.179Z,92934.72
2022-09-15T00:47:52.894Z,92929.11
2022-09-15T00:49:19.433Z,92931.14
2022-09-15T00:50:25.748Z,92924.61
2022-09-15T00:51:49.901Z,92923.98
2022-09-15T00:52:58.012Z,92920.77
2022-09-15T00:54:04.981Z,92919.27
2022-09-15T00:55:20.397Z,92915.86
2022-09-15T00:56:24.835Z,92920.39
2022-09-15T00:57:45.501Z,92918.38
2022-09-15T00:58:57.769Z,92922.00
2022-09-15T01:00:04.465Z,92921.10
2022-09-15T01:01:09.364Z,92921.20
2022-09-15T01:02:19.461Z,92919.78
2022-09-15T01:03:25.381Z,92912.91
2022-09-15T01:04:28.793Z,92913.56
2022-09-15T01:05:41.361Z,92912.43
2022-09-15T01:06:50.794Z,92912.39
2022-09-15T01:07:56.961Z,92910.11
2022-09-15T01:09:24.149Z,92908.89
2022-09-15T01:10:34.196Z,92899.35
2022-09-15T01:11:38.851Z,92897.11
2022-09-15T01:12:42.467Z,92890.28
2022-09-15T01:13:47.757Z,92895.33
2022-09-15T01:14:50.991Z,92894.45
2022-09-15T01:16:14.317Z,92898.50
2022-09-15T01:17:35.869Z,92896.40
2022-09-15T01:19:01.501Z,92898.68
2022-09-15T01:20:16.717Z,92905.84
2022-09-15T01:21:44.975Z,92910.27
2022-09-15T01:23:00.127Z,92910.10
2022-09-15T01:24:22.029Z,92904.60
2022-09-15T01:26:02.252Z,92907.95
2022-09-15T01:27:41.078Z,92910.12
2022-09-15T01:29:04.663Z,92908.75
2022-09-15T01:30:09.413Z,92910.73
2022-09-15T01:32:04.955Z,92908.56
2022-09-15T01:33:17.048Z,92914.72
2022-09-15T01:34:21.942Z,92917.79
2022-09-15T01:35:29.436Z,92915.56
2022-09-15T01:36:48.617Z,92918.14
2022-09-15T01:38:14.907Z,92917.89
2022-09-15T01:39:29.462Z,92921.95
2022-09-15T01:40:39.393Z,92922.79
2022-09-15T01:41:56.156Z,92917.88
2022-09-15T01:43:02.257Z,92919.48
2022-09-15T01:44:13.692Z,92908.30
2022-09-15T01:45:20.148Z,92925.02
2022-09-15T01:46:26.364Z,92916.61
2022-09-15T01:47:34.803Z,92919.16
2022-09-15T01:48:41.354Z,92915.93
2022-09-15T01:49:50.966Z,92913.69
2022-09-15T01:50:58.938Z,92916.69
2022-09-15T01:52:02.607Z,92912.96
2022-09-15T01:53:11.342Z,92903.13
2022-09-15T01:54:17.814Z,92899.50
2022-09-15T01:55:30.316Z,92903.16
2022-09-15T01:56:33.754Z,92902.53
2022-09-15T01:57:36.975Z,92904.52
2022-09-15T01:58:41.761Z,92904.10
2022-09-15T01:59:44.974Z,92903.84
2022-09-15T02:00:53.790Z,92902.09
2022-09-15T02:02:05.565Z,92899.89
2022-09-15T02:03:23.631Z,92901.91
2022-09-15T02:04:50.569Z,92896.64
2022-09-15T02:06:14.787Z,92897.62
2022-09-15T02:07:45.601Z,92893.88
2022-09-15T02:09:01.586Z,92889.26
2022-09-15T02:10:37.211Z,92887.53
2022-09-15T02:12:10.957Z,92887.26
2022-09-15T02:13:28.268Z,92888.00
2022-09-15T02:14:40.692Z,92889.34
2022-09-15T02:15:52.001Z,92887.17
2022-09-15T02:16:55.308Z,92892.73
2022-09-15T02:18:03.307Z,92892.58
2022-09-15T02:19:15.164Z,92896.83
2022-09-15T02:20:25.779Z,92894.63
2022-09-15T02:21:36.601Z,92897.02
2022-09-15T02:22:48.847Z,92904.55
2022-09-15T02:23:55.478Z,92899.19
2022-09-15T02:25:03.821Z,92899.16
2022-09-15T02:26:14.269Z,92887.48
2022-09-15T02:27:24.383Z,92888.83
2022-09-15T02:28:31.872Z,92894.05
2022-09-15T02:29:37.562Z,92896.42
2022-09-15T02:31:09.035Z,92899.03
2022-09-15T02:32:18.796Z,92894.60
2022-09-15T02:33:25.896Z,92892.02
2022-09-15T02:34:41.146Z,92895.95
2022-09-15T02:35:53.337Z,92890.81
2022-09-15T02:37:10.246Z,92893.60
2022-09-15T02:38:17.992Z,92896.85
2022-09-15T02:39:27.832Z,92895.85
2022-09-15T02:40:32.515Z,92900.38
2022-09-15T02:41:37.436Z,92900.06
2022-09-15T02:42:41.001Z,92905.36
2022-09-15T02:43:50.827Z,92904.62
2022-09-15T02:45:01.253Z,92909.91
2022-09-15T02:46:04.743Z,92903.31
2022-09-15T02:47:09.048Z,92899.36
2022-09-15T02:48:13.259Z,92893.69
2022-09-15T02:49:17.129Z,92892.42
2022-09-15T02:50:20.750Z,92885.80
2022-09-15T02:51:24.012Z,92890.00
2022-09-15T02:52:27.167Z,92890.48
2022-09-15T02:53:30.542Z,92892.09
2022-09-15T02:54:33.734Z,92893.37
2022-09-15T02:55:36.906Z,92890.52
2022-09-15T02:56:41.294Z,92890.13
2022-09-15T02:57:44.470Z,92892.56
2022-09-15T02:58:48.253Z,92886.15
2022-09-15T03:00:09.862Z,92883.94
2022-09-15T03:01:15.935Z,92889.96
2022-09-15T03:02:20.791Z,92890.51
2022-09-15T03:03:24.534Z,92890.23
2022-09-15T03:04:27.632Z,92891.10
2022-09-15T03:05:31.431Z,92892.40
2022-09-15T03:06:34.970Z,92885.69
2022-09-15T03:07:38.734Z,92881.34
2022-09-15T03:08:53.441Z,92878.50
2022-09-15T03:09:57.251Z,92879.52
2022-09-15T03:11:02.996Z,92882.25
2022-09-15T03:12:07.154Z,92886.30
2022-09-15T03:13:10.389Z,92890.27
2022-09-15T03:14:13.703Z,92890.27
2022-09-15T03:15:20.198Z,92893.41
2022-09-15T03:16:24.670Z,92890.98
2022-09-15T03:17:27.822Z,92889.70
2022-09-15T03:18:31.557Z,92885.15
2022-09-15T03:19:34.723Z,92887.98
2022-09-15T03:20:37.912Z,92891.11
2022-09-15T03:21:41.289Z,92886.09
2022-09-15T03:22:48.312Z,92889.83
2022-09-15T03:23:51.952Z,92889.07
2022-09-15T03:24:55.208Z,92890.73
2022-09-15T03:26:02.051Z,92890.49
2022-09-15T03:27:06.013Z,92885.19
2022-09-15T03:28:09.218Z,92885.19
2022-09-15T03:29:12.961Z,92888.86
2022-09-15T03:30:16.169Z,92889.10
2022-09-15T03:31:20.632Z,92886.84
2022-09-15T03:32:23.936Z,92891.73
2022-09-15T03:33:27.425Z,92889.84
2022-09-15T03:34:31.027Z,92891.42
2022-09-15T03:35:34.164Z,92890.02
2022-09-15T03:36:38.426Z,92890.36
2022-09-15T03:37:41.583Z,92890.54
2022-09-15T03:38:44.830Z,92887.45
2022-09-15T03:39:48.865Z,92887.77
2022-09-15T03:41:12.855Z,92885.39
2022-09-15T03:42:17.004Z,92874.20
2022-09-15T03:43:20.307Z,92878.80
2022-09-15T03:44:23.668Z,92879.54
2022-09-15T03:45:26.969Z,92875.95
2022-09-15T03:46:32.501Z,92876.83
2022-09-15T03:47:35.591Z,92874.45
2022-09-15T03:48:40.782Z,92875.89
2022-09-15T03:49:43.986Z,92877.04
2022-09-15T03:50:47.302Z,92879.67
2022-09-15T03:51:51.159Z,92881.00
2022-09-15T03:52:58.648Z,92873.92
2022-09-15T03:54:02.029Z,92873.77
2022-09-15T03:55:05.538Z,92875.33
2022-09-15T03:56:33.791Z,92875.64
2022-09-15T03:57:37.004Z,92873.11
2022-09-15T03:58:40.457Z,92872.00
2022-09-15T03:59:43.729Z,92870.37
2022-09-15T04:00:47.269Z,92867.72
2022-09-15T04:01:51.062Z,92870.75
2022-09-15T04:02:54.785Z,92870.67
2022-09-15T04:03:58.798Z,92869.31
2022-09-15T04:05:05.061Z,92868.73
2022-09-15T04:06:10.147Z,92871.52
2022-09-15T04:07:13.449Z,92866.50
2022-09-15T04:08:16.688Z,92871.17
2022-09-15T04:09:21.622Z,92871.52
2022-09-15T04:10:25.014Z,92872.45
2022-09-15T04:11:31.085Z,92870.07
2022-09-15T04:12:35.450Z,92865.63
2022-09-15T04:13:40.721Z,92865.07
2022-09-15T04:14:43.964Z,92865.54
2022-09-15T04:15:48.689Z,92864.27
2022-09-15T04:16:52.478Z,92863.51
2022-09-15T04:17:55.967Z,92864.58
2022-09-15T04:18:59.584Z,92859.89
2022-09-15T04:20:03.236Z,92859.03
2022-09-15T04:21:09.058Z,92860.63
2022-09-15T04:22:17.024Z,92861.27
2022-09-15T04:23:23.466Z,92858.80
2022-09-15T04:24:26.704Z,92859.98
2022-09-15T04:25:30.224Z,92858.57
2022-09-15T04:26:36.178Z,92860.04
2022-09-15T04:27:39.603Z,92855.93
2022-09-15T04:28:42.789Z,92862.54
2022-09-15T04:29:46.352Z,92860.55
2022-09-15T04:30:49.693Z,92863.78
2022-09-15T04:31:53.803Z,92863.77
2022-09-15T04:32:57.061Z,92867.14
2022-09-15T04:34:00.348Z,92869.48
2022-09-15T04:35:05.015Z,92875.14
2022-09-15T04:36:12.054Z,92870.94
2022-09-15T04:37:15.426Z,92868.78
2022-09-15T04:38:18.632Z,92872.48
2022-09-15T04:39:22.627Z,92868.48
2022-09-15T04:40:26.176Z,92864.90
2022-09-15T04:41:29.427Z,92861.41
2022-09-15T04:42:32.717Z,92869.88
2022-09-15T04:43:39.016Z,92870.50
2022-09-15T04:44:42.466Z,92866.23
2022-09-15T04:45:45.869Z,92867.73
2022-09-15T04:46:51.675Z,92864.38
2022-09-15T04:47:57.981Z,92858.96
2022-09-15T04:49:01.192Z,92863.31
2022-09-15T04:50:04.833Z,92868.84
2022-09-15T04:51:12.538Z,92869.30
2022-09-15T04:52:15.724Z,92863.47
2022-09-15T04:53:19.362Z,92866.71
2022-09-15T04:54:22.620Z,92866.36
2022-09-15T04:55:27.195Z,92872.30
2022-09-15T04:56:30.422Z,92868.53
2022-09-15T04:57:33.962Z,92862.01
2022-09-15T04:58:42.593Z,92860.88
2022-09-15T04:59:45.860Z,92858.59
2022-09-15T05:00:49.162Z,92857.88
2022-09-15T05:01:56.121Z,92858.27
2022-09-15T05:03:00.222Z,92858.94
2022-09-15T05:04:04.312Z,92856.00
2022-09-15T05:05:08.546Z,92860.27
2022-09-15T05:06:16.838Z,92858.51
2022-09-15T05:07:20.749Z,92852.00
2022-09-15T05:08:26.782Z,92853.17
2022-09-15T05:09:31.285Z,92854.17
2022-09-15T05:10:35.241Z,92851.89
2022-09-15T05:11:38.789Z,92851.84
2022-09-15T05:12:43.657Z,92850.95
2022-09-15T05:13:47.631Z,92848.06
2022-09-15T05:14:50.986Z,92846.70
2022-09-15T05:15:54.345Z,92845.97
2022-09-15T05:16:57.607Z,92849.59
2022-09-15T05:18:02.002Z,92848.16
2022-09-15T05:19:05.228Z,92846.77
2022-09-15T05:20:08.764Z,92849.48
2022-09-15T05:21:15.085Z,92853.73
2022-09-15T05:22:18.370Z,92851.23
2022-09-15T05:23:21.616Z,92851.85
2022-09-15T05:24:24.900Z,92850.42
2022-09-15T05:25:28.502Z,92854.91
2022-09-15T05:26:32.208Z,92852.28
2022-09-15T05:27:35.412Z,92856.88
2022-09-15T05:28:39.105Z,92855.52
2022-09-15T05:29:42.311Z,92856.95
2022-09-15T05:30:45.456Z,92865.04
2022-09-15T05:31:48.943Z,92868.44
2022-09-15T05:32:53.396Z,92865.47
2022-09-15T05:33:57.276Z,92869.16
2022-09-15T05:35:00.542Z,92868.64
2022-09-15T05:36:04.453Z,92869.53
2022-09-15T05:37:10.729Z,92868.09
2022-09-15T05:38:14.023Z,92872.56
2022-09-15T05:39:17.408Z,92872.36
2022-09-15T05:40:22.385Z,92878.17
2022-09-15T05:41:27.626Z,92877.84
2022-09-15T05:42:32.243Z,92881.23
2022-09-15T05:43:37.789Z,92876.44
2022-09-15T05:44:41.292Z,92882.58
2022-09-15T05:45:45.242Z,92886.17
2022-09-15T05:46:48.793Z,92885.15
2022-09-15T05:47:52.304Z,92886.66
2022-09-15T05:48:58.031Z,92891.89
2022-09-15T05:50:01.348Z,92889.24
2022-09-15T05:51:04.980Z,92887.51
2022-09-15T05:52:08.145Z,92897.67
2022-09-15T05:53:11.368Z,92897.15
2022-09-15T05:54:14.662Z,92897.23
2022-09-15T05:55:18.111Z,92895.15
2022-09-15T05:56:21.404Z,92897.11
2022-09-15T05:57:24.957Z,92896.28
2022-09-15T05:58:28.424Z,92894.00
2022-09-15T05:59:31.944Z,92897.66
2022-09-15T06:00:35.343Z,92901.78
2022-09-15T06:01:38.634Z,92899.11
2022-09-15T06:02:42.013Z,92897.55
2022-09-15T06:03:46.358Z,92892.91
2022-09-15T06:04:50.310Z,92897.66
2022-09-15T06:06:00.941Z,92896.16
2022-09-15T06:07:04.126Z,92894.77
2022-09-15T06:08:07.297Z,92897.08
2022-09-15T06:09:10.526Z,92900.83
2022-09-15T06:10:13.665Z,92896.62
2022-09-15T06:11:19.686Z,92896.95
2022-09-15T06:12:23.441Z,92901.38
2022-09-15T06:13:26.917Z,92905.67
2022-09-15T06:14:30.080Z,92903.34
2022-09-15T06:15:33.784Z,92904.27
2022-09-15T06:16:39.905Z,92909.70
2022-09-15T06:17:43.073Z,92911.94
2022-09-15T06:18:48.254Z,92914.73
2022-09-15T06:19:51.361Z,92913.13
2022-09-15T06:20:54.488Z,92916.96
2022-09-15T06:21:57.708Z,92922.45
2022-09-15T06:23:00.882Z,92923.36
2022-09-15T06:24:07.360Z,92928.57
2022-09-15T06:25:14.271Z,92928.61
2022-09-15T06:26:19.799Z,92935.27
2022-09-15T06:27:26.793Z,92937.73
2022-09-15T06:28:30.259Z,92938.30
2022-09-15T06:29:33.662Z,92937.77
2022-09-15T06:30:40.392Z,92945.20
2022-09-15T06:31:43.671Z,92945.10
2022-09-15T06:32:48.510Z,92943.06
2022-09-15T06:33:54.163Z,92938.25
2022-09-15T06:35:00.892Z,92947.20
2022-09-15T06:36:04.440Z,92945.94
2022-09-15T06:37:08.343Z,92942.89
2022-09-15T06:38:11.821Z,92946.37
2022-09-15T06:39:15.032Z,92948.27
2022-09-15T06:40:18.476Z,92947.52
2022-09-15T06:41:22.752Z,92949.53
2022-09-15T06:42:25.956Z,92953.48
2022-09-15T06:43:30.934Z,92948.93
2022-09-15T06:44:34.069Z,92950.04
2022-09-15T06:45:37.594Z,92951.88
2022-09-15T06:46:40.796Z,92948.95
2022-09-15T06:47:44.012Z,92943.27
2022-09-15T06:48:48.504Z,92947.27
2022-09-15T06:49:53.397Z,92949.55
2022-09-15T06:50:56.607Z,92953.34
2022-09-15T06:52:02.760Z,92947.69
2022-09-15T06:53:06.035Z,92945.79
2022-09-15T06:54:09.262Z,92945.05
2022-09-15T06:55:14.547Z,92941.48
2022-09-15T06:56:20.693Z,92944.48
2022-09-15T06:57:23.966Z,92948.00
2022-09-15T06:58:27.251Z,92950.52
2022-09-15T06:59:30.781Z,92944.66
2022-09-15T07:00:40.180Z,92945.45
2022-09-15T07:01:43.929Z,92945.67
2022-09-15T07:02:50.649Z,92947.80
2022-09-15T07:03:56.358Z,92947.56
2022-09-15T07:05:01.211Z,92945.09
2022-09-15T07:06:05.630Z,92946.50
2022-09-15T07:07:08.778Z,92940.55
2022-09-15T07:08:12.832Z,92941.27
2022-09-15T07:09:16.264Z,92938.09
2022-09-15T07:10:19.811Z,92938.01
2022-09-15T07:11:23.030Z,92937.06
2022-09-15T07:12:29.069Z,92935.09
2022-09-15T07:13:41.556Z,92939.13
2022-09-15T07:14:44.782Z,92938.80
2022-09-15T07:15:55.837Z,92937.21
2022-09-15T07:16:59.030Z,92938.92
2022-09-15T07:18:06.108Z,92947.16
2022-09-15T07:19:09.546Z,92950.35
2022-09-15T07:20:13.728Z,92946.73
2022-09-15T07:21:20.282Z,92948.05
2022-09-15T07:22:25.224Z,92943.55
2022-09-15T07:23:28.820Z,92945.05
2022-09-15T07:24:32.110Z,92947.82
2022-09-15T07:25:38.525Z,92940.15
2022-09-15T07:26:42.096Z,92938.00
2022-09-15T07:27:45.279Z,92934.70
2022-09-15T07:28:55.163Z,92936.65
2022-09-15T07:29:59.071Z,92931.79
2022-09-15T07:31:03.938Z,92937.74
2022-09-15T07:32:07.542Z,92939.18
2022-09-15T07:33:13.419Z,92938.19
2022-09-15T07:34:16.623Z,92938.76
2022-09-15T07:35:21.937Z,92941.96
2022-09-15T07:36:25.651Z,92942.86
2022-09-15T07:37:29.181Z,92946.40
2022-09-15T07:38:32.916Z,92944.37
2022-09-15T07:39:36.083Z,92945.52
2022-09-15T07:40:39.568Z,92945.63
2022-09-15T07:41:42.882Z,92950.63
2022-09-15T07:42:46.265Z,92957.89
2022-09-15T07:43:51.143Z,92960.61
2022-09-15T07:44:54.689Z,92960.63
2022-09-15T07:45:59.727Z,92958.73
2022-09-15T07:47:03.416Z,92960.73
2022-09-15T07:48:06.906Z,92967.23
2022-09-15T07:49:10.552Z,92960.26
2022-09-15T07:50:14.564Z,92963.63
2022-09-15T07:51:18.601Z,92963.61
2022-09-15T07:52:21.775Z,92960.72
2022-09-15T07:53:25.353Z,92960.27
2022-09-15T07:54:28.656Z,92961.20
2022-09-15T07:55:33.120Z,92960.58
2022-09-15T07:56:36.275Z,92960.89
2022-09-15T07:57:39.496Z,92960.11
2022-09-15T07:58:43.985Z,92960.42
2022-09-15T07:59:47.216Z,92962.02
2022-09-15T08:00:50.667Z,92963.45
2022-09-15T08:01:56.849Z,92956.29
2022-09-15T08:03:00.078Z,92966.75
2022-09-15T08:04:03.586Z,92969.51
2022-09-15T08:05:07.322Z,92970.59
2022-09-15T08:06:12.356Z,92968.83
2022-09-15T08:07:15.646Z,92978.38
2022-09-15T08:08:19.016Z,92977.70
2022-09-15T08:09:22.347Z,92982.15
2022-09-15T08:10:26.097Z,92977.73
2022-09-15T08:11:29.582Z,92981.28
2022-09-15T08:12:32.879Z,92979.81
2022-09-15T08:13:36.870Z,92976.69
2022-09-15T08:14:40.213Z,92976.52
2022-09-15T08:15:44.209Z,92978.50
2022-09-15T08:16:47.497Z,92978.65
2022-09-15T08:17:50.788Z,92976.75
2022-09-15T08:18:55.006Z,92978.12
2022-09-15T08:19:58.477Z,92981.23
2022-09-15T08:21:08.429Z,92980.09
2022-09-15T08:22:11.647Z,92978.65
2022-09-15T08:23:14.921Z,92975.60
2022-09-15T08:24:18.975Z,92980.82
2022-09-15T08:25:22.277Z,92983.48
2022-09-15T08:26:27.398Z,92985.63
2022-09-15T08:27:31.141Z,92984.98
2022-09-15T08:28:34.533Z,92987.07
2022-09-15T08:29:38.402Z,92985.72
2022-09-15T08:30:41.716Z,92980.20
2022-09-15T08:31:46.193Z,92985.96
2022-09-15T08:32:50.087Z,92982.98
2022-09-15T08:33:55.246Z,92981.44
2022-09-15T08:34:58.732Z,92982.83
2022-09-15T08:36:08.455Z,92977.91
2022-09-15T08:37:12.823Z,92984.08
2022-09-15T08:38:16.291Z,92981.20
2022-09-15T08:39:19.852Z,92976.36
2022-09-15T08:40:29.148Z,92974.48
2022-09-15T08:41:43.491Z,92977.02
2022-09-15T08:42:50.643Z,92972.13
2022-09-15T08:44:08.314Z,92973.35
2022-09-15T08:45:30.706Z,92982.26
2022-09-15T08:46:44.374Z,92973.97
2022-09-15T08:47:51.662Z,92978.86
2022-09-15T08:49:04.930Z,92979.70
2022-09-15T08:50:17.992Z,92979.12
2022-09-15T08:51:51.147Z,92977.93
2022-09-15T08:53:15.995Z,92978.73
2022-09-15T08:54:29.644Z,92978.79
2022-09-15T08:55:32.987Z,92979.95
2022-09-15T08:56:37.242Z,92990.29
2022-09-15T08:57:40.881Z,92990.29
2022-09-15T08:58:46.397Z,92995.13
2022-09-15T08:59:49.624Z,92989.19
2022-09-15T09:01:08.921Z,92986.53
2022-09-15T09:02:12.132Z,92986.65
2022-09-15T09:03:49.588Z,92985.17
2022-09-15T09:05:25.373Z,92979.79
2022-09-15T09:06:54.193Z,92980.13
2022-09-15T09:08:00.264Z,92985.66
2022-09-15T09:09:25.172Z,92986.20
2022-09-15T09:10:50.162Z,92986.09
2022-09-15T09:12:01.725Z,92989.39
2022-09-15T09:13:20.543Z,92992.36
2022-09-15T09:14:52.676Z,92984.69
2022-09-15T09:16:09.997Z,92984.29
2022-09-15T09:17:22.604Z,92993.20
2022-09-15T09:18:38.729Z,92988.23
2022-09-15T09:20:02.549Z,92986.81
2022-09-15T09:21:31.268Z,92985.09
2022-09-15T09:22:38.922Z,92979.11
2022-09-15T09:24:16.073Z,92980.35
2022-09-15T09:25:27.769Z,92980.48
2022-09-15T09:26:37.093Z,92978.45
2022-09-15T09:27:48.298Z,92979.45
2022-09-15T09:28:59.342Z,92975.04
2022-09-15T09:30:16.524Z,92975.87
2022-09-15T09:31:22.734Z,92968.39
2022-09-15T09:32:41.243Z,92968.11
2022-09-15T09:33:51.807Z,92966.17
2022-09-15T09:35:05.597Z,92968.42
2022-09-15T09:36:19.472Z,92970.45
2022-09-15T09:37:24.991Z,92959.61
2022-09-15T09:38:37.008Z,92962.72
2022-09-15T09:39:40.453Z,92956.39
2022-09-15T09:40:47.072Z,92960.25
2022-09-15T09:41:50.948Z,92963.62
2022-09-15T09:42:54.476Z,92956.67
2022-09-15T09:43:57.729Z,92961.84
2022-09-15T09:45:00.912Z,92960.72
2022-09-15T09:46:16.653Z,92960.59
2022-09-15T09:47:20.689Z,92956.36
2022-09-15T09:48:29.011Z,92961.88
2022-09-15T09:49:42.683Z,92958.07
2022-09-15T09:50:46.845Z,92960.64
2022-09-15T09:52:03.761Z,92961.27
2022-09-15T09:53:26.598Z,92965.17
2022-09-15T09:54:32.449Z,92965.13
2022-09-15T09:55:35.736Z,92965.52
2022-09-15T09:56:40.183Z,92963.95
2022-09-15T09:57:43.500Z,92961.48
2022-09-15T09:58:46.846Z,92962.05
2022-09-15T09:59:57.974Z,92967.08
2022-09-15T10:01:10.732Z,92962.29
2022-09-15T10:02:25.120Z,92959.35
2022-09-15T10:03:32.851Z,92961.14
2022-09-15T10:04:36.355Z,92960.84
2022-09-15T10:05:42.620Z,92958.19
2022-09-15T10:06:48.608Z,92961.64
2022-09-15T10:07:51.795Z,92955.84
2022-09-15T10:09:00.532Z,92957.70
2022-09-15T10:10:04.697Z,92956.60
2022-09-15T10:11:11.111Z,92952.45
2022-09-15T10:12:21.787Z,92955.30
2022-09-15T10:13:25.321Z,92950.86
2022-09-15T10:14:32.982Z,92948.89
2022-09-15T10:15:37.514Z,92945.37
2022-09-15T10:16:41.164Z,92950.30
2022-09-15T10:17:46.184Z,92939.66
2022-09-15T10:18:57.977Z,92942.54
2022-09-15T10:20:01.201Z,92938.21
2022-09-15T10:21:09.858Z,92942.41
2022-09-15T10:22:24.779Z,92943.55
2022-09-15T10:23:31.156Z,92943.53
2022-09-15T10:24:39.070Z,92937.48
2022-09-15T10:25:59.162Z,92936.82
2022-09-15T10:27:18.937Z,92935.33
2022-09-15T10:28:26.018Z,92931.01
2022-09-15T10:29:38.253Z,92930.08
2022-09-15T10:31:02.692Z,92931.85
2022-09-15T10:32:25.180Z,92931.34
2022-09-15T10:33:41.963Z,92928.72
2022-09-15T10:34:48.986Z,92925.18
2022-09-15T10:35:54.831Z,92929.79
2022-09-15T10:37:16.486Z,92925.36
2022-09-15T10:38:34.407Z,92926.97
2022-09-15T10:39:52.806Z,92928.64
2022-09-15T10:41:28.913Z,92923.35
2022-09-15T10:42:37.094Z,92924.13
2022-09-15T10:43:55.308Z,92926.56
2022-09-15T10:45:16.693Z,92924.63
2022-09-15T10:46:24.551Z,92923.80
2022-09-15T10:47:36.846Z,92924.04
2022-09-15T10:49:04.580Z,92929.09
2022-09-15T10:50:54.605Z,92925.44
2022-09-15T10:52:12.262Z,92925.42
2022-09-15T10:53:18.606Z,92920.69
2022-09-15T10:54:36.882Z,92921.91
2022-09-15T10:55:53.563Z,92920.27
2022-09-15T10:57:10.562Z,92921.80
2022-09-15T10:58:23.077Z,92917.84
2022-09-15T10:59:43.627Z,92922.42
2022-09-15T11:01:12.739Z,92915.20
2022-09-15T11:02:31.582Z,92914.27
2022-09-15T11:03:43.838Z,92913.70
2022-09-15T11:05:13.428Z,92907.41
2022-09-15T11:06:39.624Z,92906.80
2022-09-15T11:07:49.353Z,92899.50
2022-09-15T11:09:26.170Z,92896.48
2022-09-15T11:11:01.641Z,92899.27
2022-09-15T11:12:32.296Z,92894.30
2022-09-15T11:14:12.719Z,92888.67
2022-09-15T11:15:22.242Z,92890.41
2022-09-15T11:17:13.551Z,92879.10
2022-09-15T11:18:34.819Z,92886.27
2022-09-15T11:20:07.417Z,92886.60
2022-09-15T11:21:22.228Z,92886.23
2022-09-15T11:22:30.532Z,92884.59
2022-09-15T11:23:40.106Z,92889.18
2022-09-15T11:25:10.131Z,92885.61
2022-09-15T11:26:40.371Z,92887.46
2022-09-15T11:27:51.702Z,92881.79
2022-09-15T11:29:03.660Z,92882.73
2022-09-15T11:30:19.362Z,92882.91
2022-09-15T11:31:36.585Z,92882.37
2022-09-15T11:33:04.389Z,92876.80
2022-09-15T11:34:21.994Z,92877.71
2022-09-15T11:35:44.653Z,92876.35
2022-09-15T11:36:55.245Z,92876.46
2022-09-15T11:38:37.419Z,92880.88
2022-09-15T11:39:54.006Z,92881.34
2022-09-15T11:41:31.333Z,92884.49
2022-09-15T11:42:51.587Z,92877.50
2022-09-15T11:44:16.734Z,92879.90
2022-09-15T11:45:30.686Z,92875.41
2022-09-15T11:46:45.791Z,92874.85
2022-09-15T11:47:53.962Z,92870.98
2022-09-15T11:49:08.913Z,92875.61
2022-09-15T11:50:28.586Z,92869.27
2022-09-15T11:51:39.770Z,92868.42
2022-09-15T11:53:01.552Z,92865.18
2022-09-15T11:54:22.737Z,92866.36
2022-09-15T11:55:49.447Z,92862.27
2022-09-15T11:56:53.891Z,92863.92
2022-09-15T11:58:05.957Z,92864.02
2022-09-15T11:59:56.497Z,92864.14
2022-09-15T12:01:32.788Z,92861.57
2022-09-15T12:03:13.807Z,92859.75
2022-09-15T12:04:32.135Z,92858.88
2022-09-15T12:06:05.926Z,92857.70
2022-09-15T12:07:29.301Z,92846.52
2022-09-15T12:09:01.301Z,92845.30
2022-09-15T12:10:13.998Z,92844.09
2022-09-15T12:11:22.559Z,92839.81
2022-09-15T12:12:30.653Z,92837.38
2022-09-15T12:13:37.028Z,92840.45
2022-09-15T12:14:48.653Z,92843.95
2022-09-15T12:15:53.468Z,92851.33
2022-09-15T12:16:57.818Z,92853.94
2022-09-15T12:18:38.150Z,92852.89
2022-09-15T12:20:06.149Z,92847.93
2022-09-15T12:22:02.987Z,92852.15
2022-09-15T12:23:21.904Z,92852.41
2022-09-15T12:24:38.218Z,92854.10
2022-09-15T12:26:02.931Z,92848.05
2022-09-15T12:27:20.526Z,92846.35
2022-09-15T12:28:26.718Z,92854.10
2022-09-15T12:29:41.191Z,92850.04
2022-09-15T12:30:45.568Z,92845.40
2022-09-15T12:31:48.856Z,92847.59
2022-09-15T12:32:56.664Z,92844.44
2022-09-15T12:34:30.513Z,92841.70
2022-09-15T12:35:33.790Z,92838.30
2022-09-15T12:36:37.121Z,92834.26
2022-09-15T12:38:01.106Z,92832.73
2022-09-15T12:39:21.082Z,92843.74
2022-09-15T12:40:35.458Z,92841.86
2022-09-15T12:41:50.245Z,92841.20
2022-09-15T12:42:55.057Z,92841.09
2022-09-15T12:44:12.678Z,92838.24
2022-09-15T12:45:31.956Z,92843.58
2022-09-15T12:46:35.287Z,92846.23
2022-09-15T12:47:41.739Z,92846.72
2022-09-15T12:48:47.795Z,92855.42
2022-09-15T12:49:53.245Z,92849.58
2022-09-15T12:51:03.351Z,92851.30
2022-09-15T12:52:08.242Z,92857.96
2022-09-15T12:53:38.217Z,92856.69
2022-09-15T12:54:45.575Z,92861.19
2022-09-15T12:55:55.572Z,92864.13
2022-09-15T12:57:00.487Z,92858.80
2022-09-15T12:58:16.109Z,92862.89
2022-09-15T12:59:28.194Z,92858.23
2022-09-15T13:00:54.829Z,92853.86
2022-09-15T13:02:03.443Z,92841.44
2022-09-15T13:03:25.891Z,92844.06
2022-09-15T13:04:51.353Z,92842.74
2022-09-15T13:06:30.797Z,92844.62
2022-09-15T13:07:36.216Z,92841.13
2022-09-15T13:08:46.466Z,92850.67
2022-09-15T13:10:09.377Z,92854.55
2022-09-15T13:11:21.232Z,92861.60
2022-09-15T13:12:31.182Z,92859.78
2022-09-15T13:13:46.482Z,92860.13
2022-09-15T13:14:53.964Z,92865.07
2022-09-15T13:15:59.849Z,92868.48
2022-09-15T13:17:10.345Z,92866.83
2022-09-15T13:18:16.154Z,92864.98
2022-09-15T13:19:22.748Z,92868.82
2022-09-15T13:20:33.655Z,92866.72
2022-09-15T13:21:41.123Z,92867.81
2022-09-15T13:22:50.169Z,92882.16
2022-09-15T13:23:54.445Z,92878.98
2022-09-15T13:25:15.797Z,92878.56
2022-09-15T13:26:25.692Z,92880.80
2022-09-15T13:27:43.211Z,92886.71
2022-09-15T13:28:54.204Z,92885.96
2022-09-15T13:30:17.341Z,92886.09
2022-09-15T13:31:45.945Z,92888.13
2022-09-15T13:33:25.028Z,92886.93
2022-09-15T13:35:08.302Z,92889.56
2022-09-15T13:38:35.453Z,92891.79